Time;durP1;ratioP1;P1;durP2;ratioP2;P2;SDS_P1;SDS_P2;PMS_P1;PMS_P2;Temp;Humidity;BMP_temperature;BMP_pressure;BME280_temperature;BME280_humidity;BME280_pressure;Samples;Min_cycle;Max_cycle;Signal;HPM_P1;HPM_P2
2021/05/07 00:09:08;;;;;;;13.33;2.97;;;8.20;99.90;;;;;;20904730;28;20029;-73
2021/05/07 00:19:09;;;;;;;8.37;3.00;;;8.10;99.90;;;;;;20904253;28;20049;-74
2021/05/07 00:29:10;;;;;;;10.43;3.63;;;8.10;99.90;;;;;;20905092;28;20036;-73
2021/05/07 00:39:10;;;;;;;8.17;2.77;;;8.00;99.90;;;;;;20903501;28;20029;-74
2021/05/07 00:49:11;;;;;;;5.93;3.20;;;7.90;99.90;;;;;;20895609;28;20036;-73
2021/05/07 00:59:13;;;;;;;;;;;7.90;99.90;;;;;;20917810;28;20044;-73
2021/05/07 01:09:14;;;;;;;5.28;2.30;;;7.90;99.90;;;;;;20918994;28;19913;-73
2021/05/07 01:19:15;;;;;;;3.10;2.13;;;7.90;99.90;;;;;;20918073;28;20399;-73
2021/05/07 01:29:16;;;;;;;8.90;2.33;;;7.90;99.90;;;;;;20917482;28;20546;-73
2021/05/07 01:39:17;;;;;;;6.63;2.17;;;7.90;99.90;;;;;;20915814;28;20029;-74
2021/05/07 01:49:18;;;;;;;;;;;7.90;99.90;;;;;;20914249;28;20576;-73
2021/05/07 01:59:19;;;;;;;2.83;1.05;;;7.80;99.90;;;;;;20912046;28;19919;-73
2021/05/07 02:09:20;;;;;;;2.90;1.07;;;7.70;99.90;;;;;;20913356;28;20170;-73
2021/05/07 02:19:21;;;;;;;6.30;1.87;;;7.70;99.90;;;;;;20912191;28;20032;-73
2021/05/07 02:29:22;;;;;;;5.33;2.27;;;7.60;99.90;;;;;;20911715;28;20415;-73
2021/05/07 02:39:23;;;;;;;3.23;1.77;;;7.60;99.90;;;;;;20909728;28;20029;-73
2021/05/07 02:49:24;;;;;;;3.07;0.80;;;7.50;99.90;;;;;;20908962;28;20120;-73
2021/05/07 02:59:25;;;;;;;3.23;1.20;;;7.50;99.90;;;;;;20909978;28;20048;-73
2021/05/07 03:09:26;;;;;;;9.97;2.03;;;7.50;99.90;;;;;;20948091;28;20025;-74
2021/05/07 03:19:27;;;;;;;12.15;2.65;;;7.50;99.90;;;;;;20982427;22;20033;-82
2021/05/07 03:29:28;;;;;;;6.10;2.47;;;7.40;99.90;;;;;;20929231;28;20029;-81
2021/05/07 03:39:29;;;;;;;6.93;2.37;;;7.40;99.90;;;;;;20928124;28;20043;-80
2021/05/07 03:49:30;;;;;;;13.10;3.27;;;7.40;99.90;;;;;;20921614;28;20032;-82
2021/05/07 03:59:31;;;;;;;18.25;6.18;;;7.40;99.90;;;;;;20924492;28;20029;-80
2021/05/07 04:09:39;;;;;;;6.43;3.07;;;7.30;99.90;;;;;;20928586;28;20116;-79
2021/05/07 04:19:39;;;;;;;11.13;3.22;;;7.30;99.90;;;;;;20911591;28;20033;-79
2021/05/07 04:29:41;;;;;;;7.17;2.73;;;7.30;99.90;;;;;;20940209;28;20031;-80
2021/05/07 04:39:42;;;;;;;16.77;3.25;;;7.30;99.90;;;;;;20920537;28;20035;-80
2021/05/07 04:49:44;;;;;;;10.40;3.23;;;7.30;99.90;;;;;;20936447;28;20402;-80
2021/05/07 04:59:45;;;;;;;14.25;3.72;;;7.40;99.90;;;;;;20916711;28;20393;-80
2021/05/07 05:09:46;;;;;;;8.00;2.60;;;7.50;99.90;;;;;;20916314;28;20381;-79
2021/05/07 05:19:47;;;;;;;5.57;1.40;;;7.60;99.90;;;;;;20933118;28;20036;-80
2021/05/07 05:29:48;;;;;;;13.18;4.20;;;7.60;99.90;;;;;;20932070;28;20033;-82
2021/05/07 05:39:49;;;;;;;15.53;4.93;;;7.80;99.90;;;;;;20913340;28;20136;-83
2021/05/07 05:49:50;;;;;;;10.13;3.43;;;8.20;99.90;;;;;;20928972;28;20083;-79
2021/05/07 05:59:51;;;;;;;18.30;3.00;;;8.20;99.90;;;;;;20913058;28;20037;-83
2021/05/07 06:09:52;;;;;;;11.80;2.50;;;8.50;99.90;;;;;;20909519;28;20041;-80
2021/05/07 06:19:53;;;;;;;4.80;0.80;;;8.50;99.90;;;;;;20932035;28;20037;-82
2021/05/07 06:29:54;;;;;;;0.60;0.40;;;8.40;99.90;;;;;;20934158;28;20025;-81
2021/05/07 06:39:55;;;;;;;0.43;0.30;;;8.20;99.90;;;;;;20934539;28;20079;-82
2021/05/07 06:49:55;;;;;;;2.60;0.80;;;7.90;99.90;;;;;;20933762;28;20068;-83
2021/05/07 06:59:56;;;;;;;1.17;0.80;;;7.70;99.90;;;;;;20929130;28;20033;-79
2021/05/07 07:09:57;;;;;;;7.57;1.00;;;7.60;99.90;;;;;;20922097;28;20078;-80
2021/05/07 07:19:58;;;;;;;1.87;0.80;;;7.50;99.90;;;;;;20922975;28;20382;-82
2021/05/07 07:29:59;;;;;;;2.03;0.97;;;7.50;99.90;;;;;;20922532;28;20043;-79
2021/05/07 07:40:00;;;;;;;3.80;1.23;;;7.40;99.90;;;;;;20921719;28;20040;-79
2021/05/07 07:50:02;;;;;;;2.47;0.90;;;7.90;99.90;;;;;;20921307;28;20029;-80
2021/05/07 08:00:05;;;;;;;0.70;0.60;;;8.20;99.90;;;;;;20934026;28;20078;-80
2021/05/07 08:10:14;;;;;;;1.17;0.85;;;9.10;99.90;;;;;;20937195;28;20390;-80
2021/05/07 08:20:16;;;;;;;2.10;0.40;;;9.00;99.90;;;;;;20936949;28;20107;-79
2021/05/07 08:30:18;;;;;;;0.13;0.10;;;9.40;99.90;;;;;;20917212;28;20083;-83
2021/05/07 08:40:19;;;;;;;0.20;0.20;;;9.20;99.90;;;;;;20933141;28;20485;-82
2021/05/07 08:50:21;;;;;;;0.40;0.30;;;9.20;99.90;;;;;;20915017;28;20057;-80
2021/05/07 09:00:22;;;;;;;0.35;0.20;;;9.40;99.90;;;;;;20931693;28;20032;-80
2021/05/07 09:10:41;;;;;;;0.40;0.30;;;9.10;99.90;;;;;;20935078;28;20037;-83
2021/05/07 09:20:42;;;;;;;0.40;0.20;;;9.70;99.90;;;;;;20936636;28;20033;-81
2021/05/07 09:30:45;;;;;;;0.30;0.30;;;9.50;99.90;;;;;;20940452;28;20538;-78
2021/05/07 09:40:46;;;;;;;1.95;0.45;;;9.20;99.90;;;;;;20937167;28;20032;-79
2021/05/07 09:50:49;;;;;;;0.60;0.60;;;9.00;99.90;;;;;;20937719;28;20104;-79
2021/05/07 10:00:49;;;;;;;1.17;0.60;;;8.70;99.90;;;;;;20937168;28;20029;-78
2021/05/07 10:10:58;;;;;;;1.87;1.10;;;8.60;99.90;;;;;;20937354;28;20033;-78
2021/05/07 10:21:12;;;;;;;2.55;1.17;;;8.30;99.90;;;;;;20935440;28;20052;-79
2021/05/07 10:31:15;;;;;;;2.17;1.70;;;8.00;99.90;;;;;;20936680;28;20417;-81
2021/05/07 10:41:16;;;;;;;2.67;1.52;;;8.50;99.90;;;;;;20938238;28;20067;-80
2021/05/07 10:51:17;;;;;;;2.97;2.07;;;8.40;99.90;;;;;;20938898;28;20033;-80
2021/05/07 11:01:24;;;;;;;3.20;2.07;;;8.10;99.90;;;;;;20935118;28;20029;-80
2021/05/07 11:11:32;;;;;;;3.30;2.28;;;8.90;99.90;;;;;;20930605;28;20047;-81
2021/05/07 11:21:34;;;;;;;3.70;2.47;;;8.80;99.90;;;;;;20935647;28;20040;-80
2021/05/07 11:31:34;;;;;;;4.73;2.33;;;8.80;99.90;;;;;;20939768;28;20116;-79
2021/05/07 11:41:42;;;;;;;6.13;2.30;;;9.10;99.90;;;;;;20941552;28;20052;-81
2021/05/07 11:51:47;;;;;;;2.92;2.17;;;9.00;99.90;;;;;;20931321;28;20501;-80
2021/05/07 12:01:49;;;;;;;5.03;2.45;;;10.30;99.90;;;;;;20924771;28;20029;-78
2021/05/07 12:11:56;;;;;;;8.13;4.15;;;12.10;99.90;;;;;;20926950;28;20021;-82
2021/05/07 12:21:56;;;;;;;6.47;4.18;;;12.60;99.90;;;;;;20927233;28;20086;-81
2021/05/07 12:32:02;;;;;;;11.10;4.67;;;11.90;99.90;;;;;;20932130;28;20025;-80
2021/05/07 12:42:05;;;;;;;1.95;1.70;;;11.40;99.90;;;;;;20933902;28;20412;-81
2021/05/07 12:52:06;;;;;;;3.75;1.67;;;11.30;99.90;;;;;;20924156;28;20116;-80
2021/05/07 13:02:07;;;;;;;4.43;1.37;;;11.40;99.90;;;;;;20940140;28;20044;-80
2021/05/07 13:12:08;;;;;;;7.70;1.97;;;11.40;99.90;;;;;;20934918;28;20412;-79
2021/05/07 13:22:09;;;;;;;2.67;1.47;;;11.50;99.90;;;;;;20887450;28;20037;-80
2021/05/07 13:32:12;;;;;;;4.30;1.10;;;11.70;99.90;;;;;;20882763;28;20448;-80
2021/05/07 13:42:14;;;;;;;1.27;0.80;;;12.90;99.90;;;;;;20923765;28;20033;-80
2021/05/07 13:52:15;;;;;;;3.90;1.30;;;14.20;99.90;;;;;;20906427;28;20059;-81
2021/05/07 14:02:15;;;;;;;1.88;1.10;;;14.10;99.90;;;;;;20923786;28;20036;-80
2021/05/07 14:12:16;;;;;;;1.13;0.90;;;14.30;99.90;;;;;;20921152;28;20032;-80
2021/05/07 14:22:17;;;;;;;2.25;1.48;;;14.40;99.90;;;;;;20914730;28;20664;-81
2021/05/07 14:32:18;;;;;;;2.80;1.80;;;14.70;99.90;;;;;;20907771;28;20516;-80
2021/05/07 14:42:19;;;;;;;6.05;1.20;;;14.10;99.90;;;;;;20914300;28;20104;-80
2021/05/07 14:52:20;;;;;;;2.70;1.30;;;14.20;99.90;;;;;;20947308;28;20378;-80
2021/05/07 15:02:21;;;;;;;6.43;1.30;;;13.80;99.90;;;;;;20998346;28;20039;-81
2021/05/07 15:12:22;;;;;;;2.17;1.23;;;12.60;99.90;;;;;;20928170;28;20040;-81
2021/05/07 15:22:24;;;;;;;2.83;1.43;;;12.60;99.90;;;;;;20879126;22;20079;-75
2021/05/07 15:32:25;;;;;;;1.90;0.90;;;13.60;99.90;;;;;;20819936;28;20053;-74
2021/05/07 15:42:26;;;;;;;4.93;1.70;;;14.10;99.90;;;;;;20773027;28;20029;-74
2021/05/07 15:52:27;;;;;;;1.10;0.80;;;14.00;99.90;;;;;;20777207;28;20053;-74
2021/05/07 16:02:28;;;;;;;3.10;1.13;;;13.80;99.90;;;;;;20789893;28;20117;-74
2021/05/07 16:12:29;;;;;;;2.42;1.20;;;13.00;99.90;;;;;;20788143;28;20029;-74
2021/05/07 16:22:30;;;;;;;2.67;1.65;;;13.00;99.90;;;;;;20817108;28;20083;-75
2021/05/07 16:32:30;;;;;;;1.40;0.95;;;13.00;99.90;;;;;;20819573;28;20377;-75
2021/05/07 16:42:31;;;;;;;1.92;1.13;;;13.20;99.90;;;;;;20818796;28;20044;-75
2021/05/07 16:52:32;;;;;;;4.40;2.60;;;13.20;99.90;;;;;;20816568;28;20120;-75
2021/05/07 17:02:33;;;;;;;6.63;3.72;;;12.80;99.90;;;;;;20815740;28;20038;-75
2021/05/07 17:12:34;;;;;;;9.88;4.03;;;12.50;99.90;;;;;;20814907;28;20041;-75
2021/05/07 17:22:35;;;;;;;5.13;3.42;;;12.50;99.90;;;;;;20815201;28;20037;-76
2021/05/07 17:32:36;;;;;;;5.05;2.38;;;12.50;99.90;;;;;;20759966;28;20037;-75
2021/05/07 17:42:37;;;;;;;1.42;1.00;;;12.50;99.90;;;;;;20733415;28;20040;-75
2021/05/07 17:52:38;;;;;;;0.90;0.70;;;12.40;99.90;;;;;;20730968;28;20037;-75
2021/05/07 18:02:39;;;;;;;4.70;0.98;;;12.10;99.90;;;;;;20760915;28;20063;-75
2021/05/07 18:12:41;;;;;;;1.93;1.03;;;11.70;99.90;;;;;;20766056;28;20083;-75
2021/05/07 18:22:44;;;;;;;4.43;1.50;;;11.00;99.90;;;;;;20825744;28;20103;-75
2021/05/07 18:32:44;;;;;;;5.28;2.10;;;10.40;99.90;;;;;;20810761;28;20043;-75
2021/05/07 18:42:46;;;;;;;3.90;2.33;;;9.30;99.90;;;;;;20809731;28;20868;-75
2021/05/07 18:52:47;;;;;;;11.23;6.50;;;8.80;99.90;;;;;;20808630;28;20033;-75
2021/05/07 19:02:49;;;;;;;4.83;2.10;;;8.20;99.90;;;;;;20806366;28;20037;-74
2021/05/07 19:12:49;;;;;;;3.10;2.05;;;7.90;99.90;;;;;;20805849;28;20499;-75
2021/05/07 19:22:50;;;;;;;19.37;7.87;;;7.60;99.90;;;;;;20804096;28;20120;-74
2021/05/07 19:32:51;;;;;;;8.20;2.73;;;7.50;99.90;;;;;;20805820;28;20729;-75
2021/05/07 19:42:52;;;;;;;5.60;3.10;;;7.00;99.90;;;;;;20818569;28;20095;-74
2021/05/07 19:52:53;;;;;;;7.00;2.90;;;7.00;99.90;;;;;;20814453;28;20041;-74
2021/05/07 20:02:54;;;;;;;2.73;1.97;;;6.40;99.90;;;;;;20822501;28;20037;-74
2021/05/07 20:12:55;;;;;;;5.40;3.33;;;6.20;99.90;;;;;;20823672;28;20499;-75
2021/05/07 20:22:56;;;;;;;5.03;3.27;;;5.80;99.90;;;;;;20823167;28;20056;-74
2021/05/07 20:32:57;;;;;;;7.20;3.87;;;5.30;99.90;;;;;;20799377;28;20033;-74
2021/05/07 20:42:58;;;;;;;8.57;4.50;;;5.10;99.90;;;;;;20789743;28;20084;-75
2021/05/07 20:52:59;;;;;;;9.75;5.43;;;5.20;99.90;;;;;;20795795;28;20408;-74
2021/05/07 21:03:07;;;;;;;4.93;3.40;;;4.90;99.90;;;;;;20834641;28;20035;-74
2021/05/07 21:13:08;;;;;;;4.50;2.85;;;4.70;99.90;;;;;;20838126;28;20080;-75
2021/05/07 21:23:08;;;;;;;12.30;7.57;;;4.80;99.90;;;;;;20901633;22;20045;-73
2021/05/07 21:33:09;;;;;;;4.10;2.87;;;4.30;99.90;;;;;;20916860;28;20403;-75
2021/05/07 21:43:10;;;;;;;5.20;3.47;;;4.40;99.90;;;;;;20916211;28;20029;-73
2021/05/07 21:53:11;;;;;;;6.27;2.87;;;4.00;99.90;;;;;;20914002;28;20447;-75
2021/05/07 22:03:12;;;;;;;7.68;2.10;;;3.80;99.90;;;;;;20914477;28;20020;-73
2021/05/07 22:13:16;;;;;;;3.13;2.10;;;4.00;99.90;;;;;;20913716;28;20116;-73
2021/05/07 22:23:16;;;;;;;3.28;2.03;;;4.40;99.90;;;;;;20912952;28;20032;-75
2021/05/07 22:33:19;;;;;;;5.23;2.30;;;4.60;99.90;;;;;;20911087;28;20086;-74
2021/05/07 22:43:20;;;;;;;3.17;1.90;;;4.60;99.90;;;;;;20909995;28;20044;-74
2021/05/07 22:53:21;;;;;;;5.73;2.20;;;4.20;99.90;;;;;;20910442;28;20471;-74
2021/05/07 23:03:22;;;;;;;2.93;1.87;;;4.30;99.90;;;;;;20909920;28;20436;-74
2021/05/07 23:13:23;;;;;;;3.83;1.97;;;4.40;99.90;;;;;;20909248;28;20040;-74
2021/05/07 23:23:23;;;;;;;3.27;2.20;;;4.00;99.90;;;;;;20908644;28;20032;-74
2021/05/07 23:33:24;;;;;;;3.93;2.50;;;3.80;99.90;;;;;;20907995;28;20451;-73
2021/05/07 23:43:25;;;;;;;4.00;2.63;;;3.70;99.90;;;;;;20907620;28;20506;-75
2021/05/07 23:53:27;;;;;;;5.23;2.57;;;4.20;99.90;;;;;;20907204;28;20025;-74
